Time;durP1;ratioP1;P1;durP2;ratioP2;P2;SDS_P1;SDS_P2;PMS_P1;PMS_P2;Temp;Humidity;BMP_temperature;BMP_pressure;BME280_temperature;BME280_humidity;BME280_pressure;Samples;Min_cycle;Max_cycle;Signal;HPM_P1;HPM_P2
2023/06/12 00:01:12;;;;;;;5.13;4.60;;;17.40;52.40;;;;;;5073644;28;20020;-72
2023/06/12 00:03:40;;;;;;;7.22;4.53;;;17.30;52.60;;;;;;5073957;28;20029;-71
2023/06/12 00:06:09;;;;;;;5.85;4.53;;;17.20;52.80;;;;;;5073175;28;20033;-72
2023/06/12 00:08:35;;;;;;;6.57;4.47;;;17.20;53.10;;;;;;5073336;28;20055;-71
2023/06/12 00:11:07;;;;;;;7.70;4.75;;;17.00;53.60;;;;;;5073381;28;20028;-72
2023/06/12 00:13:33;;;;;;;6.50;4.82;;;17.00;53.90;;;;;;5072761;28;20030;-71
2023/06/12 00:15:58;;;;;;;4.55;4.15;;;16.90;53.70;;;;;;5072101;28;20111;-71
2023/06/12 00:18:24;;;;;;;5.00;4.50;;;16.90;53.70;;;;;;5072065;28;20021;-71
2023/06/12 00:20:49;;;;;;;6.10;4.45;;;16.90;53.80;;;;;;5073307;28;20028;-71
2023/06/12 00:23:15;;;;;;;5.00;4.45;;;17.00;53.90;;;;;;5073308;28;20036;-72
2023/06/12 00:25:40;;;;;;;5.13;4.60;;;17.00;53.70;;;;;;5073026;28;20059;-71
2023/06/12 00:28:06;;;;;;;4.32;3.92;;;16.90;54.10;;;;;;5073150;28;20389;-72
2023/06/12 00:30:32;;;;;;;6.07;4.40;;;16.90;53.90;;;;;;5073414;28;20028;-72
2023/06/12 00:32:57;;;;;;;6.75;4.53;;;16.90;54.10;;;;;;5073240;28;20105;-75
2023/06/12 00:35:23;;;;;;;4.78;4.28;;;16.90;53.90;;;;;;5073019;28;20024;-72
2023/06/12 00:37:49;;;;;;;5.78;4.78;;;16.90;53.70;;;;;;5073433;28;20033;-72
2023/06/12 00:40:15;;;;;;;5.47;4.38;;;16.90;53.90;;;;;;5072855;28;20060;-72
2023/06/12 00:42:45;;;;;;;4.60;4.20;;;16.90;53.70;;;;;;5073053;28;20371;-72
2023/06/12 00:45:18;;;;;;;4.93;4.10;;;16.80;53.80;;;;;;5073039;28;20028;-72
2023/06/12 00:47:58;;;;;;;5.25;4.50;;;16.80;53.80;;;;;;5073025;28;20028;-72
2023/06/12 00:50:27;;;;;;;5.47;4.32;;;16.90;53.90;;;;;;5073009;28;20116;-72
2023/06/12 00:52:53;;;;;;;5.85;4.30;;;16.80;53.90;;;;;;5072919;28;20020;-72
2023/06/12 00:55:19;;;;;;;4.95;4.45;;;16.80;53.90;;;;;;5073083;28;20455;-72
2023/06/12 00:57:46;;;;;;;4.88;4.45;;;16.80;53.90;;;;;;5072648;28;20064;-72
2023/06/12 01:00:14;;;;;;;5.75;4.85;;;16.80;54.10;;;;;;5072552;28;20056;-72
2023/06/12 01:02:50;;;;;;;5.18;4.03;;;16.70;54.30;;;;;;5072471;28;20029;-72
2023/06/12 01:05:22;;;;;;;4.80;4.40;;;16.70;54.40;;;;;;5072578;28;20481;-72
2023/06/12 01:08:21;;;;;;;4.57;4.10;;;16.60;54.70;;;;;;5072609;28;20025;-72
2023/06/12 01:11:02;;;;;;;4.40;3.97;;;16.60;54.90;;;;;;5019761;28;20135;-72
2023/06/12 01:13:29;;;;;;;4.80;4.40;;;16.60;54.80;;;;;;5072733;28;20100;-72
2023/06/12 01:15:55;;;;;;;4.93;3.97;;;16.60;54.70;;;;;;5072451;28;20362;-71
2023/06/12 01:18:21;;;;;;;4.95;4.45;;;16.60;54.70;;;;;;5072404;28;20028;-71
2023/06/12 01:20:53;;;;;;;5.65;4.75;;;16.70;54.70;;;;;;5072610;28;20036;-71
2023/06/12 01:23:21;;;;;;;5.00;4.35;;;16.60;54.60;;;;;;5072154;28;20025;-71
2023/06/12 01:26:26;;;;;;;4.57;4.18;;;16.60;54.50;;;;;;5076097;28;20121;-71
2023/06/12 01:29:09;;;;;;;5.30;4.32;;;16.60;54.50;;;;;;5076419;28;20409;-72
2023/06/12 01:31:59;;;;;;;4.80;4.10;;;16.70;54.30;;;;;;5076505;28;20028;-71
2023/06/12 01:34:53;;;;;;;5.15;4.40;;;16.50;54.60;;;;;;5076144;28;20025;-71
2023/06/12 01:37:34;;;;;;;5.53;4.53;;;16.60;54.50;;;;;;5050117;28;20025;-72
2023/06/12 01:40:02;;;;;;;4.75;4.35;;;16.50;54.90;;;;;;5076079;28;20059;-72
2023/06/12 01:42:29;;;;;;;5.03;4.57;;;16.60;54.60;;;;;;5074891;28;20626;-72
2023/06/12 01:44:56;;;;;;;5.18;4.78;;;16.60;54.40;;;;;;5076068;28;20039;-72
2023/06/12 01:47:22;;;;;;;6.00;4.72;;;16.60;54.50;;;;;;5076120;28;20484;-72
2023/06/12 01:49:48;;;;;;;7.55;4.50;;;16.50;54.60;;;;;;5076069;28;20417;-73
2023/06/12 01:52:14;;;;;;;6.55;4.47;;;16.50;54.50;;;;;;5076083;28;20108;-72
2023/06/12 01:54:40;;;;;;;6.60;4.75;;;16.60;54.50;;;;;;5075830;28;20107;-72
2023/06/12 01:57:06;;;;;;;5.38;4.88;;;16.50;54.60;;;;;;5076111;28;20024;-72
2023/06/12 01:59:34;;;;;;;5.22;4.70;;;16.50;54.80;;;;;;5075911;28;20073;-72
2023/06/12 02:02:00;;;;;;;5.07;4.57;;;16.40;55.90;;;;;;5075805;28;20024;-72
2023/06/12 02:04:28;;;;;;;6.82;5.00;;;16.20;55.40;;;;;;5075700;28;20021;-72
2023/06/12 02:06:53;;;;;;;5.05;4.55;;;16.10;56.10;;;;;;5075736;28;20029;-72
2023/06/12 02:09:19;;;;;;;5.18;4.60;;;16.10;56.40;;;;;;5075553;28;20027;-72
2023/06/12 02:11:44;;;;;;;5.80;5.20;;;16.10;56.60;;;;;;5075817;28;20033;-73
2023/06/12 02:14:10;;;;;;;5.03;4.53;;;16.10;56.80;;;;;;5075581;28;20103;-72
2023/06/12 02:16:35;;;;;;;5.70;4.50;;;16.10;56.90;;;;;;5075603;28;20033;-72
2023/06/12 02:19:01;;;;;;;6.13;4.82;;;16.20;56.80;;;;;;5075464;28;20037;-72
2023/06/12 02:21:27;;;;;;;8.45;5.38;;;16.20;56.80;;;;;;5075281;28;20031;-72
2023/06/12 02:23:53;;;;;;;5.70;4.72;;;16.20;56.70;;;;;;5075354;28;20025;-72
2023/06/12 02:26:19;;;;;;;5.35;4.85;;;16.30;56.70;;;;;;5075832;28;20547;-72
2023/06/12 02:29:04;;;;;;;5.07;4.65;;;16.30;56.70;;;;;;5075362;28;20086;-71
2023/06/12 02:31:30;;;;;;;5.18;4.63;;;16.40;56.60;;;;;;5075349;28;20024;-73
2023/06/12 02:33:55;;;;;;;6.18;4.82;;;16.50;56.50;;;;;;5075241;28;20101;-71
2023/06/12 02:36:21;;;;;;;5.50;4.50;;;16.50;57.10;;;;;;5074255;28;20056;-71
2023/06/12 02:38:46;;;;;;;4.63;4.22;;;16.60;56.20;;;;;;5074805;28;20040;-71
2023/06/12 02:41:12;;;;;;;4.30;3.90;;;16.60;55.90;;;;;;5073778;28;20028;-71
2023/06/12 02:43:38;;;;;;;5.78;4.65;;;16.70;55.90;;;;;;5075028;28;20515;-71
2023/06/12 02:46:04;;;;;;;5.45;4.90;;;16.70;55.80;;;;;;5075041;28;20032;-71
2023/06/12 02:48:29;;;;;;;5.50;4.40;;;16.70;56.50;;;;;;5073850;28;20070;-71
2023/06/12 02:50:55;;;;;;;5.10;4.50;;;16.70;55.60;;;;;;5082020;28;20056;-71
2023/06/12 02:53:20;;;;;;;5.47;4.97;;;16.70;55.70;;;;;;5074961;28;20029;-70
2023/06/12 02:55:46;;;;;;;5.28;4.78;;;16.70;55.90;;;;;;5075087;28;20032;-71
2023/06/12 02:58:12;;;;;;;7.13;4.25;;;16.60;56.00;;;;;;5075488;28;20028;-72
2023/06/12 03:00:37;;;;;;;5.15;4.55;;;16.70;55.90;;;;;;5074946;28;20021;-72
2023/06/12 03:03:04;;;;;;;5.20;4.70;;;16.70;56.00;;;;;;5074750;28;20032;-73
2023/06/12 03:05:30;;;;;;;5.55;5.05;;;16.70;56.00;;;;;;5074584;28;20370;-72
2023/06/12 03:07:57;;;;;;;7.00;5.07;;;16.60;56.20;;;;;;5074611;28;20039;-72
2023/06/12 03:10:23;;;;;;;5.15;4.72;;;16.50;56.70;;;;;;5074699;28;20040;-71
2023/06/12 03:12:48;;;;;;;6.40;5.10;;;16.50;56.80;;;;;;5074537;28;20389;-73
2023/06/12 03:15:14;;;;;;;6.43;4.63;;;16.50;56.90;;;;;;5074440;28;20032;-72
2023/06/12 03:17:40;;;;;;;9.82;5.18;;;16.40;56.90;;;;;;5074386;28;20052;-72
2023/06/12 03:20:07;;;;;;;5.85;4.60;;;16.40;57.00;;;;;;5074274;28;20067;-72
2023/06/12 03:22:32;;;;;;;6.47;4.57;;;16.40;57.00;;;;;;5074612;28;20024;-73
2023/06/12 03:24:58;;;;;;;5.72;5.00;;;16.40;57.10;;;;;;5074173;28;20550;-74
2023/06/12 03:27:25;;;;;;;5.40;4.90;;;16.40;57.10;;;;;;5074158;28;20151;-73
2023/06/12 03:29:50;;;;;;;6.28;4.80;;;16.40;57.10;;;;;;5074168;28;20490;-72
2023/06/12 03:32:16;;;;;;;4.82;4.40;;;16.50;57.00;;;;;;5073996;28;20060;-72
2023/06/12 03:34:42;;;;;;;6.07;4.60;;;16.50;56.90;;;;;;5073852;28;20377;-73
2023/06/12 03:37:08;;;;;;;5.35;4.85;;;16.60;56.80;;;;;;5073763;28;20020;-73
2023/06/12 03:39:33;;;;;;;6.63;4.68;;;16.70;56.60;;;;;;5073660;28;20101;-72
2023/06/12 03:41:59;;;;;;;5.82;4.95;;;16.70;56.40;;;;;;5073626;28;20032;-72
2023/06/12 03:44:25;;;;;;;5.88;5.22;;;16.70;56.20;;;;;;5073854;28;20021;-73
2023/06/12 03:46:50;;;;;;;5.20;4.75;;;16.60;56.20;;;;;;5073416;28;20046;-73
2023/06/12 03:49:16;;;;;;;6.28;4.68;;;16.60;57.20;;;;;;5072831;28;20025;-73
2023/06/12 03:51:42;;;;;;;8.23;6.03;;;16.50;56.50;;;;;;5073502;28;20064;-73
2023/06/12 03:54:07;;;;;;;7.10;5.00;;;16.40;56.60;;;;;;5073486;28;20027;-72
2023/06/12 03:56:33;;;;;;;6.65;5.30;;;16.50;56.60;;;;;;5073643;28;20412;-72
2023/06/12 03:59:00;;;;;;;8.63;5.05;;;16.40;56.70;;;;;;5073587;28;20535;-73
2023/06/12 04:01:26;;;;;;;6.15;4.90;;;16.40;56.70;;;;;;5073596;28;20067;-72
2023/06/12 04:03:53;;;;;;;5.85;5.25;;;16.30;57.00;;;;;;5073414;28;20426;-74
2023/06/12 04:06:20;;;;;;;5.05;4.55;;;16.30;57.20;;;;;;5073294;28;20485;-73
2023/06/12 04:08:46;;;;;;;6.53;5.57;;;16.40;57.20;;;;;;5072913;28;20024;-72
2023/06/12 04:11:14;;;;;;;5.70;4.90;;;16.40;57.50;;;;;;5073422;28;20484;-72
2023/06/12 04:13:41;;;;;;;5.80;5.20;;;16.50;57.50;;;;;;5073235;28;20058;-73
2023/06/12 04:16:07;;;;;;;6.93;5.90;;;16.50;57.20;;;;;;5071987;28;20477;-72
2023/06/12 04:18:33;;;;;;;5.55;4.43;;;16.60;57.10;;;;;;5073310;28;20020;-74
2023/06/12 04:21:00;;;;;;;10.00;6.15;;;16.70;56.90;;;;;;5073134;28;20035;-72
2023/06/12 04:23:29;;;;;;;5.45;4.85;;;16.70;56.80;;;;;;5073189;28;20021;-73
2023/06/12 04:26:05;;;;;;;11.30;5.68;;;16.80;56.70;;;;;;5073120;28;20032;-72
2023/06/12 04:28:34;;;;;;;6.07;5.28;;;16.90;56.40;;;;;;5073154;28;20024;-72
2023/06/12 04:31:00;;;;;;;5.88;5.28;;;16.90;56.30;;;;;;5073108;28;20089;-72
2023/06/12 04:33:30;;;;;;;7.38;4.90;;;17.00;56.20;;;;;;5073227;28;20025;-75
2023/06/12 04:36:01;;;;;;;8.18;5.22;;;17.10;56.40;;;;;;5073173;28;20021;-75
2023/06/12 04:38:30;;;;;;;6.50;5.35;;;17.10;56.00;;;;;;5072741;28;20029;-73
2023/06/12 04:40:58;;;;;;;7.20;5.00;;;17.20;55.80;;;;;;5073185;28;20030;-77
2023/06/12 04:43:24;;;;;;;6.88;6.03;;;17.30;55.70;;;;;;5072761;28;20365;-74
2023/06/12 04:45:51;;;;;;;6.00;5.05;;;17.40;55.50;;;;;;5072903;28;20039;-73
2023/06/12 04:48:17;;;;;;;6.70;4.65;;;17.40;55.30;;;;;;5073020;28;20027;-73
2023/06/12 04:50:44;;;;;;;7.05;5.65;;;17.50;55.40;;;;;;5072870;28;20103;-77
2023/06/12 04:53:09;;;;;;;6.18;5.05;;;17.60;55.30;;;;;;5072757;28;20470;-74
2023/06/12 04:55:35;;;;;;;7.13;5.13;;;17.70;55.10;;;;;;5072708;28;20025;-73
2023/06/12 04:58:00;;;;;;;10.73;5.95;;;17.80;54.80;;;;;;5072667;28;20040;-72
2023/06/12 05:00:28;;;;;;;4.95;4.53;;;17.80;54.70;;;;;;5072416;28;20035;-73
2023/06/12 05:02:55;;;;;;;5.53;5.03;;;17.90;54.50;;;;;;5072689;28;20020;-73
2023/06/12 05:05:21;;;;;;;5.55;4.97;;;18.10;54.20;;;;;;5072507;28;20027;-72
2023/06/12 05:07:47;;;;;;;5.43;4.93;;;18.10;53.80;;;;;;5071347;28;20029;-73
2023/06/12 05:10:14;;;;;;;7.10;5.70;;;18.30;53.60;;;;;;5072655;28;20020;-73
2023/06/12 05:12:39;;;;;;;8.88;5.60;;;18.30;53.20;;;;;;5072410;28;20037;-73
2023/06/12 05:15:07;;;;;;;7.13;5.32;;;18.30;53.50;;;;;;5072593;28;20052;-72
2023/06/12 05:17:33;;;;;;;7.07;5.45;;;18.40;53.30;;;;;;5072634;28;20380;-74
2023/06/12 05:19:59;;;;;;;5.28;4.78;;;18.50;53.00;;;;;;5072417;28;20101;-72
2023/06/12 05:22:25;;;;;;;6.80;5.75;;;18.60;52.60;;;;;;5071955;28;20023;-72
2023/06/12 05:24:50;;;;;;;6.68;4.70;;;18.70;52.70;;;;;;5072004;28;20103;-72
2023/06/12 05:27:16;;;;;;;6.85;5.10;;;18.70;52.40;;;;;;5072105;28;20108;-73
2023/06/12 05:29:41;;;;;;;5.60;4.88;;;18.80;52.70;;;;;;5071596;28;20070;-73
2023/06/12 05:32:07;;;;;;;6.57;5.20;;;18.90;52.70;;;;;;5072199;28;20033;-73
2023/06/12 05:34:33;;;;;;;12.55;5.20;;;18.90;52.30;;;;;;5070944;28;20389;-74
2023/06/12 05:36:59;;;;;;;7.05;5.28;;;19.00;52.10;;;;;;5072357;28;20031;-76
2023/06/12 05:39:24;;;;;;;5.70;5.20;;;18.90;52.30;;;;;;5072368;28;20048;-74
2023/06/12 05:41:50;;;;;;;6.82;5.13;;;18.90;52.10;;;;;;5072251;28;20024;-74
2023/06/12 05:44:16;;;;;;;9.90;5.75;;;19.00;51.90;;;;;;5072072;28;20028;-73
2023/06/12 05:46:41;;;;;;;9.13;5.25;;;19.00;52.40;;;;;;5070890;28;20032;-75
2023/06/12 05:49:08;;;;;;;10.25;6.25;;;19.00;52.50;;;;;;5070915;28;20025;-73
2023/06/12 05:51:33;;;;;;;11.20;5.78;;;19.10;52.60;;;;;;5071060;28;20098;-69
2023/06/12 05:53:59;;;;;;;7.03;5.10;;;19.00;53.50;;;;;;5070936;28;20028;-73
2023/06/12 05:56:25;;;;;;;5.15;4.60;;;19.20;52.70;;;;;;5071818;28;20384;-74
2023/06/12 05:58:50;;;;;;;6.55;5.38;;;19.20;52.50;;;;;;5071869;28;20095;-71
2023/06/12 06:01:21;;;;;;;6.65;4.95;;;19.20;52.00;;;;;;5070725;28;20032;-70
2023/06/12 06:03:48;;;;;;;7.18;5.38;;;19.30;52.10;;;;;;5071897;28;20020;-70
2023/06/12 06:06:15;;;;;;;8.48;4.75;;;19.40;52.00;;;;;;5070345;28;20036;-70
2023/06/12 06:08:41;;;;;;;5.47;4.90;;;19.60;52.10;;;;;;5071440;28;20081;-71
2023/06/12 06:11:07;;;;;;;7.63;4.72;;;19.70;50.90;;;;;;5072356;28;20035;-70
2023/06/12 06:13:33;;;;;;;6.47;5.18;;;19.80;52.70;;;;;;5075259;28;20078;-71
2023/06/12 06:16:02;;;;;;;7.80;4.40;;;20.00;51.20;;;;;;5075098;28;20028;-73
2023/06/12 06:18:29;;;;;;;10.75;4.47;;;20.20;51.70;;;;;;5073952;28;20075;-72
2023/06/12 06:20:54;;;;;;;6.07;4.10;;;20.50;49.60;;;;;;5074322;28;20024;-73
2023/06/12 06:23:21;;;;;;;5.43;4.40;;;20.70;49.40;;;;;;5076112;28;20409;-72
2023/06/12 06:25:47;;;;;;;4.35;3.95;;;21.00;47.90;;;;;;5074046;28;20040;-71
2023/06/12 06:28:13;;;;;;;4.45;4.00;;;21.10;46.80;;;;;;5075125;28;20345;-73
2023/06/12 06:30:39;;;;;;;6.25;3.70;;;21.30;46.70;;;;;;5075102;28;20033;-74
2023/06/12 06:33:05;;;;;;;7.70;4.38;;;21.50;44.90;;;;;;5073850;28;20028;-71
2023/06/12 06:35:30;;;;;;;4.72;3.97;;;21.60;44.00;;;;;;5074704;28;20044;-72
2023/06/12 06:37:56;;;;;;;9.13;3.90;;;21.60;42.80;;;;;;5073222;28;20023;-71
2023/06/12 06:40:22;;;;;;;3.90;3.58;;;21.70;42.10;;;;;;5073602;28;20037;-74
2023/06/12 06:42:47;;;;;;;4.43;3.90;;;21.80;42.90;;;;;;5073605;28;20031;-70
2023/06/12 06:45:13;;;;;;;6.15;3.97;;;21.90;42.60;;;;;;5074702;28;20021;-70
2023/06/12 06:47:38;;;;;;;4.13;3.78;;;22.00;41.50;;;;;;5074324;28;20060;-71
2023/06/12 06:50:04;;;;;;;7.95;4.07;;;22.00;41.20;;;;;;5073613;28;20020;-70
2023/06/12 06:52:30;;;;;;;6.43;3.85;;;22.10;41.20;;;;;;5074338;28;20040;-70
2023/06/12 06:54:56;;;;;;;12.30;4.40;;;22.20;41.30;;;;;;5073075;28;20429;-70
2023/06/12 06:57:23;;;;;;;8.18;3.90;;;22.30;39.60;;;;;;5074382;28;20029;-70
2023/06/12 06:59:50;;;;;;;6.72;4.10;;;22.40;40.10;;;;;;5074507;28;20040;-70
2023/06/12 07:02:16;;;;;;;7.68;3.95;;;22.60;39.80;;;;;;5073098;28;20028;-70
2023/06/12 07:04:42;;;;;;;4.85;3.72;;;22.70;38.50;;;;;;5074195;28;20487;-70
2023/06/12 07:07:08;;;;;;;6.20;4.10;;;22.80;38.30;;;;;;5074113;28;20032;-70
2023/06/12 07:09:33;;;;;;;8.80;3.80;;;22.90;38.00;;;;;;5074083;28;20028;-73
2023/06/12 07:11:59;;;;;;;6.57;4.47;;;23.00;38.00;;;;;;5074002;28;20029;-72
2023/06/12 07:14:25;;;;;;;5.50;4.00;;;23.00;37.80;;;;;;5074188;28;20017;-72
2023/06/12 07:16:50;;;;;;;6.55;4.20;;;23.00;38.20;;;;;;5074097;28;20040;-71
2023/06/12 07:19:16;;;;;;;4.18;3.70;;;23.10;37.30;;;;;;5074257;28;20373;-70
2023/06/12 07:21:41;;;;;;;5.35;4.03;;;23.10;37.20;;;;;;5082702;28;20051;-71
2023/06/12 07:24:07;;;;;;;6.30;3.67;;;23.00;37.00;;;;;;5084150;28;20091;-71
2023/06/12 07:26:33;;;;;;;12.70;4.47;;;23.10;38.40;;;;;;5084068;28;20035;-71
2023/06/12 07:28:58;;;;;;;7.00;3.72;;;23.20;37.20;;;;;;5090180;28;20496;-70
2023/06/12 07:31:24;;;;;;;4.60;3.70;;;23.30;36.90;;;;;;5094098;28;20035;-72
2023/06/12 07:33:50;;;;;;;5.43;3.85;;;23.40;36.50;;;;;;5094180;28;20384;-71
2023/06/12 07:36:16;;;;;;;5.85;3.42;;;23.50;36.80;;;;;;5094100;28;20133;-72
2023/06/12 07:38:42;;;;;;;4.10;3.67;;;23.50;36.80;;;;;;5092840;28;20044;-71
2023/06/12 07:41:08;;;;;;;8.35;3.65;;;23.60;36.50;;;;;;5094078;28;20024;-71
2023/06/12 07:43:34;;;;;;;4.57;3.65;;;23.70;36.40;;;;;;5092730;28;20085;-71
2023/06/12 07:46:03;;;;;;;6.13;3.60;;;23.80;36.20;;;;;;5094058;28;20028;-72
2023/06/12 07:48:28;;;;;;;4.15;3.60;;;24.00;36.10;;;;;;5094009;28;20486;-71
2023/06/12 07:50:55;;;;;;;4.13;3.80;;;24.10;34.90;;;;;;5093839;28;20045;-72
2023/06/12 07:53:20;;;;;;;5.93;3.72;;;24.10;34.70;;;;;;5093867;28;20032;-71
2023/06/12 07:55:47;;;;;;;8.88;3.90;;;24.20;34.30;;;;;;5092534;28;20020;-72
2023/06/12 07:58:13;;;;;;;5.38;3.90;;;24.20;34.40;;;;;;5093443;28;20016;-73
2023/06/12 08:00:38;;;;;;;7.68;3.88;;;24.30;34.00;;;;;;5093638;28;20031;-71
2023/06/12 08:03:04;;;;;;;7.78;3.90;;;24.30;33.10;;;;;;5092443;28;20484;-71
2023/06/12 08:05:30;;;;;;;5.03;4.05;;;24.40;33.00;;;;;;5092467;28;20067;-71
2023/06/12 08:07:58;;;;;;;3.63;3.30;;;24.40;32.90;;;;;;5092270;28;20124;-71
2023/06/12 08:10:23;;;;;;;5.88;3.72;;;24.40;32.50;;;;;;5092161;28;20154;-71
2023/06/12 08:12:49;;;;;;;6.60;3.42;;;24.40;32.50;;;;;;5092163;28;20066;-71
2023/06/12 08:15:15;;;;;;;6.72;3.85;;;24.40;32.80;;;;;;5093544;28;20077;-71
2023/06/12 08:17:42;;;;;;;5.07;3.58;;;24.40;32.50;;;;;;5093464;28;20021;-72
2023/06/12 08:20:09;;;;;;;5.25;3.40;;;24.40;32.50;;;;;;5093101;28;20081;-72
2023/06/12 08:22:36;;;;;;;6.07;3.95;;;24.40;32.10;;;;;;5093072;28;20020;-72
2023/06/12 08:25:06;;;;;;;7.22;4.07;;;24.50;32.30;;;;;;5093221;28;20061;-73
2023/06/12 08:27:33;;;;;;;5.40;3.63;;;24.50;32.20;;;;;;5091888;28;20052;-72
2023/06/12 08:29:59;;;;;;;3.70;3.40;;;24.50;31.40;;;;;;5093159;28;20099;-72
2023/06/12 08:32:25;;;;;;;4.32;3.78;;;24.50;30.90;;;;;;5093057;28;20016;-70
2023/06/12 08:34:51;;;;;;;4.43;3.80;;;24.50;30.70;;;;;;5092448;28;20031;-70
2023/06/12 08:37:17;;;;;;;6.65;3.90;;;24.40;30.00;;;;;;5093411;28;20020;-71
2023/06/12 08:39:43;;;;;;;4.10;3.70;;;24.20;30.20;;;;;;5092941;28;20527;-70
2023/06/12 08:42:14;;;;;;;5.65;3.95;;;24.20;30.30;;;;;;5093146;28;20052;-70
2023/06/12 08:44:42;;;;;;;4.38;3.53;;;24.10;29.80;;;;;;5093061;28;20024;-79
2023/06/12 08:47:09;;;;;;;8.68;4.07;;;24.20;30.40;;;;;;5092922;28;20484;-79
2023/06/12 08:49:34;;;;;;;7.68;3.60;;;24.20;30.40;;;;;;5093071;28;20054;-78
2023/06/12 08:52:01;;;;;;;5.07;3.97;;;24.20;30.00;;;;;;5091791;28;20032;-82
2023/06/12 08:54:27;;;;;;;3.55;3.17;;;24.20;30.10;;;;;;5092987;28;20024;-85
2023/06/12 08:56:57;;;;;;;4.85;3.58;;;24.20;30.50;;;;;;5091687;28;20144;-86
2023/06/12 08:59:22;;;;;;;4.32;3.83;;;24.30;31.20;;;;;;5093032;28;20105;-71
2023/06/12 09:01:54;;;;;;;8.77;3.67;;;24.40;30.60;;;;;;5092509;28;20541;-74
2023/06/12 09:04:28;;;;;;;5.10;3.80;;;24.40;29.80;;;;;;5092161;28;20647;-72
2023/06/12 09:07:03;;;;;;;5.00;3.75;;;24.40;31.10;;;;;;5091045;28;20337;-72
2023/06/12 09:09:42;;;;;;;5.50;4.38;;;24.50;31.70;;;;;;5092574;28;20111;-80
2023/06/12 09:12:12;;;;;;;6.60;3.65;;;24.50;30.20;;;;;;5091096;28;20025;-80
2023/06/12 09:14:39;;;;;;;3.97;3.50;;;24.50;30.00;;;;;;5092620;28;20031;-73
2023/06/12 09:17:07;;;;;;;4.60;3.92;;;24.60;29.90;;;;;;5092161;28;20472;-77
2023/06/12 09:19:39;;;;;;;8.70;3.85;;;24.70;28.90;;;;;;5092300;28;20035;-74
2023/06/12 09:22:05;;;;;;;7.97;3.05;;;24.70;28.90;;;;;;5092254;28;20031;-80
2023/06/12 09:24:30;;;;;;;4.93;3.63;;;24.70;28.90;;;;;;5090944;28;20028;-81
2023/06/12 09:26:56;;;;;;;3.67;3.20;;;24.60;28.40;;;;;;5092295;28;20473;-79
2023/06/12 09:29:33;;;;;;;4.28;3.55;;;24.60;28.10;;;;;;5092557;28;20469;-79
2023/06/12 09:32:00;;;;;;;4.32;3.92;;;24.60;28.90;;;;;;5091839;28;20533;-74
2023/06/12 09:34:26;;;;;;;6.00;3.90;;;24.70;29.60;;;;;;5090906;28;20047;-72
2023/06/12 09:36:52;;;;;;;6.00;4.20;;;24.70;30.50;;;;;;5091165;28;20028;-71
2023/06/12 09:39:28;;;;;;;4.82;3.42;;;24.80;31.00;;;;;;5090556;28;20105;-79
2023/06/12 09:41:55;;;;;;;6.25;4.07;;;25.00;30.40;;;;;;5090732;28;20027;-71
2023/06/12 09:44:28;;;;;;;4.78;3.85;;;25.00;29.90;;;;;;5090212;28;20048;-72
2023/06/12 09:47:01;;;;;;;5.30;3.83;;;25.00;28.60;;;;;;5094081;28;20043;-71
2023/06/12 09:49:26;;;;;;;8.15;3.78;;;24.70;27.70;;;;;;5094551;28;20480;-71
2023/06/12 09:51:53;;;;;;;6.60;3.92;;;24.80;28.70;;;;;;5095682;28;20055;-72
2023/06/12 09:54:21;;;;;;;4.15;3.75;;;24.70;30.40;;;;;;5094380;28;20073;-71
2023/06/12 09:56:48;;;;;;;4.93;3.80;;;24.80;28.40;;;;;;5094290;28;20026;-71
2023/06/12 09:59:18;;;;;;;3.85;3.53;;;24.90;26.50;;;;;;5095298;28;20024;-71
2023/06/12 10:01:50;;;;;;;4.18;3.53;;;25.10;25.80;;;;;;5094365;28;20031;-70
2023/06/12 10:04:40;;;;;;;4.72;3.78;;;25.30;27.50;;;;;;5094028;28;20020;-71
2023/06/12 10:07:15;;;;;;;9.57;3.90;;;25.40;28.50;;;;;;5094586;28;20083;-71
2023/06/12 10:09:42;;;;;;;;;;;25.60;28.90;;;;;;5094174;28;20077;-71
2023/06/12 10:12:08;;;;;;;8.02;4.00;;;25.60;27.80;;;;;;5095111;28;19944;-70
2023/06/12 10:14:35;;;;;;;16.27;4.00;;;25.60;27.90;;;;;;5093713;28;20085;-70
2023/06/12 10:17:01;;;;;;;9.95;4.35;;;25.70;26.50;;;;;;5095169;28;20081;-71
2023/06/12 10:19:28;;;;;;;8.55;4.20;;;25.60;26.90;;;;;;5092994;28;20028;-71
2023/06/12 10:21:55;;;;;;;6.35;4.15;;;25.80;27.60;;;;;;5093851;28;20024;-71
2023/06/12 10:24:22;;;;;;;6.60;4.22;;;25.90;26.40;;;;;;5095148;28;20020;-71
2023/06/12 10:26:49;;;;;;;6.28;4.18;;;26.00;27.50;;;;;;5094542;28;20040;-72
2023/06/12 10:29:32;;;;;;;4.75;3.67;;;26.10;27.20;;;;;;5093395;28;20020;-71
2023/06/12 10:32:08;;;;;;;9.73;4.07;;;26.30;26.00;;;;;;5094593;28;20387;-75
2023/06/12 10:34:48;;;;;;;5.90;3.95;;;26.20;25.20;;;;;;5095380;28;20032;-74
2023/06/12 10:37:30;;;;;;;4.45;3.88;;;26.30;25.20;;;;;;5093335;28;20045;-74
2023/06/12 10:40:10;;;;;;;4.75;3.53;;;26.30;25.10;;;;;;5093144;28;20052;-74
2023/06/12 10:42:45;;;;;;;4.38;3.90;;;26.30;25.80;;;;;;5094505;28;20024;-76
2023/06/12 10:45:21;;;;;;;4.20;3.80;;;26.50;25.50;;;;;;5093246;28;20020;-73
2023/06/12 10:48:05;;;;;;;5.82;3.88;;;26.60;26.00;;;;;;5093439;28;20035;-74
2023/06/12 10:50:31;;;;;;;5.00;4.05;;;26.70;24.50;;;;;;5093150;28;20020;-72
2023/06/12 10:53:00;;;;;;;4.40;4.00;;;26.70;24.50;;;;;;5093358;28;20052;-73
2023/06/12 10:55:28;;;;;;;4.03;3.67;;;26.80;24.50;;;;;;5093804;28;20020;-73
2023/06/12 10:57:56;;;;;;;5.68;3.90;;;27.00;24.70;;;;;;5081936;28;20465;-70
2023/06/12 11:00:38;;;;;;;4.63;4.07;;;26.90;23.90;;;;;;5073334;28;20476;-71
2023/06/12 11:03:14;;;;;;;5.70;3.72;;;26.80;24.20;;;;;;5073881;28;20024;-72
2023/06/12 11:05:51;;;;;;;5.93;3.90;;;26.90;25.50;;;;;;5073754;28;20024;-72
2023/06/12 11:08:17;;;;;;;6.50;4.10;;;27.10;24.90;;;;;;5073785;28;20033;-71
2023/06/12 11:10:44;;;;;;;6.53;4.60;;;27.20;23.60;;;;;;5073372;28;20024;-71
2023/06/12 11:13:09;;;;;;;4.32;3.85;;;27.30;23.60;;;;;;5073564;28;20025;-71
2023/06/12 11:15:45;;;;;;;5.55;3.67;;;27.50;24.20;;;;;;5073582;28;20032;-71
2023/06/12 11:18:12;;;;;;;7.60;4.38;;;27.60;25.60;;;;;;5074145;28;20389;-78
2023/06/12 11:20:39;;;;;;;8.43;4.80;;;27.50;23.50;;;;;;5073770;28;20479;-73
2023/06/12 11:23:05;;;;;;;7.88;4.00;;;27.60;24.20;;;;;;5073916;28;20657;-70
2023/06/12 11:25:46;;;;;;;4.70;4.15;;;27.70;23.90;;;;;;5072555;28;20051;-74
2023/06/12 11:28:12;;;;;;;5.75;4.32;;;27.70;22.00;;;;;;5074125;28;20025;-72
2023/06/12 11:30:40;;;;;;;12.10;4.65;;;27.70;23.00;;;;;;5073966;28;20020;-73
2023/06/12 11:33:13;;;;;;;7.13;4.40;;;27.80;22.40;;;;;;5074453;28;20374;-72
2023/06/12 11:35:47;;;;;;;5.35;4.32;;;27.80;22.30;;;;;;5073914;28;20029;-73
2023/06/12 11:38:20;;;;;;;6.78;4.65;;;27.70;21.60;;;;;;5073793;28;20111;-73
2023/06/12 11:40:47;;;;;;;5.78;5.18;;;27.70;23.20;;;;;;5073951;28;20025;-73
2023/06/12 11:43:15;;;;;;;6.65;5.65;;;27.90;23.10;;;;;;5073675;28;20017;-74
2023/06/12 11:45:44;;;;;;;8.70;4.53;;;28.10;23.30;;;;;;5072310;28;20046;-78
2023/06/12 11:48:14;;;;;;;11.95;4.88;;;28.30;23.60;;;;;;5073442;28;20021;-72
2023/06/12 11:50:41;;;;;;;6.40;4.57;;;28.30;23.10;;;;;;5073386;28;20043;-73
2023/06/12 11:53:07;;;;;;;8.68;4.90;;;28.40;22.30;;;;;;5073221;28;20198;-72
2023/06/12 11:55:33;;;;;;;5.18;4.05;;;28.20;22.30;;;;;;5073225;28;20107;-72
2023/06/12 11:58:01;;;;;;;9.18;4.25;;;28.30;22.90;;;;;;5073370;28;20401;-73
2023/06/12 12:00:27;;;;;;;5.88;4.30;;;28.30;21.80;;;;;;5073110;28;20104;-77
2023/06/12 12:02:58;;;;;;;7.65;4.22;;;28.20;21.40;;;;;;5073133;28;20016;-85
2023/06/12 12:05:24;;;;;;;6.10;3.92;;;28.40;21.50;;;;;;5071882;28;20564;-73
2023/06/12 12:07:59;;;;;;;6.43;4.30;;;28.60;21.90;;;;;;5072779;28;20123;-73
2023/06/12 12:10:26;;;;;;;7.38;4.40;;;28.90;20.90;;;;;;5071445;28;20063;-74
2023/06/12 12:12:58;;;;;;;9.27;4.10;;;28.80;20.90;;;;;;5071832;28;20039;-73
2023/06/12 12:15:23;;;;;;;9.40;4.85;;;28.90;20.40;;;;;;5073176;28;20016;-76
2023/06/12 12:17:50;;;;;;;8.60;4.65;;;28.70;21.60;;;;;;5073242;28;20078;-75
2023/06/12 12:20:23;;;;;;;4.80;4.20;;;28.80;22.30;;;;;;5073260;28;20017;-73
2023/06/12 12:23:00;;;;;;;5.18;4.68;;;29.00;22.20;;;;;;5073677;28;20455;-72
2023/06/12 12:25:28;;;;;;;11.30;4.60;;;29.00;21.80;;;;;;5072970;28;20024;-73
2023/06/12 12:27:55;;;;;;;11.48;4.65;;;29.30;22.20;;;;;;5078549;28;20029;-74
2023/06/12 12:30:22;;;;;;;13.45;4.78;;;29.50;21.80;;;;;;5084477;28;20020;-71
2023/06/12 12:32:53;;;;;;;10.68;4.43;;;29.60;20.30;;;;;;5082005;28;20027;-71
2023/06/12 12:35:19;;;;;;;8.57;4.57;;;29.70;20.40;;;;;;5076893;28;20055;-73
2023/06/12 12:37:46;;;;;;;7.38;4.13;;;29.80;21.10;;;;;;5072782;28;20025;-71
2023/06/12 12:40:13;;;;;;;8.75;4.50;;;29.90;19.90;;;;;;5072479;28;20048;-88
2023/06/12 12:42:41;;;;;;;5.95;4.80;;;29.80;19.60;;;;;;5075305;28;20032;-71
2023/06/12 12:45:09;;;;;;;5.75;4.53;;;29.80;19.90;;;;;;5078965;28;20019;-73
2023/06/12 12:47:36;;;;;;;5.70;4.18;;;29.90;19.00;;;;;;5082440;28;20073;-71
2023/06/12 12:50:03;;;;;;;15.52;5.03;;;30.10;18.80;;;;;;5081822;28;20039;-71